sensor_id;sensor_type;location;lat;lon;timestamp;pressure;altitude;pressure_sealevel;temperature;humidity
61742;BME280;47650;49.848;9.620;2023-03-03T00:01:06;99984.28;;;1.50;59.42
61742;BME280;47650;49.848;9.620;2023-03-03T00:03:40;99992.50;;;1.60;58.46
61742;BME280;47650;49.848;9.620;2023-03-03T00:06:08;99960.84;;;1.48;57.98
61742;BME280;47650;49.848;9.620;2023-03-03T00:08:36;99975.59;;;1.49;57.90
61742;BME280;47650;49.848;9.620;2023-03-03T00:11:05;99965.78;;;1.37;57.24
61742;BME280;47650;49.848;9.620;2023-03-03T00:13:43;99989.59;;;1.48;56.96
61742;BME280;47650;49.848;9.620;2023-03-03T00:16:34;99975.97;;;1.42;57.32
61742;BME280;47650;49.848;9.620;2023-03-03T00:19:13;99987.38;;;1.41;57.13
61742;BME280;47650;49.848;9.620;2023-03-03T00:21:45;99978.94;;;1.36;56.90
61742;BME280;47650;49.848;9.620;2023-03-03T00:27:40;99992.91;;;1.35;58.49
61742;BME280;47650;49.848;9.620;2023-03-03T00:29:59;99932.22;;;0.94;57.99
61742;BME280;47650;49.848;9.620;2023-03-03T00:32:44;99996.59;;;1.30;58.49
61742;BME280;47650;49.848;9.620;2023-03-03T00:35:29;99983.06;;;1.22;58.48
61742;BME280;47650;49.848;9.620;2023-03-03T00:38:01;99997.75;;;1.25;58.30
61742;BME280;47650;49.848;9.620;2023-03-03T00:40:41;99951.03;;;1.01;58.72
61742;BME280;47650;49.848;9.620;2023-03-03T00:43:17;99988.28;;;1.22;58.48
61742;BME280;47650;49.848;9.620;2023-03-03T00:46:04;99995.22;;;1.23;58.73
61742;BME280;47650;49.848;9.620;2023-03-03T00:48:32;99996.34;;;1.18;57.93
61742;BME280;47650;49.848;9.620;2023-03-03T00:53:56;100006.00;;;0.98;58.29
61742;BME280;47650;49.848;9.620;2023-03-03T00:56:22;100013.63;;;1.03;58.41
61742;BME280;47650;49.848;9.620;2023-03-03T00:58:52;100009.78;;;0.92;58.70
61742;BME280;47650;49.848;9.620;2023-03-03T01:01:17;100014.09;;;0.93;58.49
61742;BME280;47650;49.848;9.620;2023-03-03T01:03:54;100010.84;;;0.88;58.27
61742;BME280;47650;49.848;9.620;2023-03-03T01:06:20;100012.66;;;0.86;58.23
61742;BME280;47650;49.848;9.620;2023-03-03T01:08:46;100019.72;;;0.84;58.63
61742;BME280;47650;49.848;9.620;2023-03-03T01:11:16;100009.28;;;0.84;58.35
61742;BME280;47650;49.848;9.620;2023-03-03T01:13:45;99989.75;;;0.74;58.71
61742;BME280;47650;49.848;9.620;2023-03-03T01:16:12;99988.16;;;0.71;58.54
61742;BME280;47650;49.848;9.620;2023-03-03T01:18:37;100008.66;;;0.79;57.95
61742;BME280;47650;49.848;9.620;2023-03-03T01:21:07;100015.72;;;0.77;58.36
61742;BME280;47650;49.848;9.620;2023-03-03T01:23:33;100008.59;;;0.81;58.77
61742;BME280;47650;49.848;9.620;2023-03-03T01:26:00;100009.59;;;0.78;58.63
61742;BME280;47650;49.848;9.620;2023-03-03T01:28:33;100001.28;;;0.70;58.03
61742;BME280;47650;49.848;9.620;2023-03-03T01:31:09;99994.75;;;0.61;58.54
61742;BME280;47650;49.848;9.620;2023-03-03T01:33:42;99986.50;;;0.51;58.28
61742;BME280;47650;49.848;9.620;2023-03-03T01:36:07;100003.41;;;0.62;59.00
61742;BME280;47650;49.848;9.620;2023-03-03T01:38:44;99957.88;;;0.31;58.81
61742;BME280;47650;49.848;9.620;2023-03-03T01:41:10;100017.66;;;0.54;58.55
61742;BME280;47650;49.848;9.620;2023-03-03T01:43:46;99981.84;;;0.39;58.87
61742;BME280;47650;49.848;9.620;2023-03-03T01:46:47;99991.84;;;0.48;58.64
61742;BME280;47650;49.848;9.620;2023-03-03T01:49:16;99994.56;;;0.47;58.55
61742;BME280;47650;49.848;9.620;2023-03-03T01:51:47;99965.94;;;0.26;58.95
61742;BME280;47650;49.848;9.620;2023-03-03T01:54:32;99985.94;;;0.45;59.26
61742;BME280;47650;49.848;9.620;2023-03-03T01:57:11;99993.53;;;0.49;59.61
61742;BME280;47650;49.848;9.620;2023-03-03T01:59:43;99992.00;;;0.45;59.12
61742;BME280;47650;49.848;9.620;2023-03-03T02:02:09;99974.94;;;0.38;59.47
61742;BME280;47650;49.848;9.620;2023-03-03T02:04:36;99971.84;;;0.30;59.50
61742;BME280;47650;49.848;9.620;2023-03-03T02:07:06;99976.63;;;0.39;59.53
61742;BME280;47650;49.848;9.620;2023-03-03T02:12:43;99986.38;;;0.35;60.63
61742;BME280;47650;49.848;9.620;2023-03-03T02:15:30;99980.25;;;0.36;59.87
61742;BME280;47650;49.848;9.620;2023-03-03T02:18:12;99980.44;;;0.32;59.42
61742;BME280;47650;49.848;9.620;2023-03-03T02:21:10;99973.84;;;0.25;59.51
61742;BME280;47650;49.848;9.620;2023-03-03T02:23:59;99980.66;;;0.27;59.90
61742;BME280;47650;49.848;9.620;2023-03-03T02:26:30;99977.41;;;0.22;59.92
61742;BME280;47650;49.848;9.620;2023-03-03T02:28:57;99983.50;;;0.23;59.81
61742;BME280;47650;49.848;9.620;2023-03-03T02:31:26;99982.56;;;0.24;60.01
61742;BME280;47650;49.848;9.620;2023-03-03T02:33:56;99981.72;;;0.23;59.75
61742;BME280;47650;49.848;9.620;2023-03-03T02:41:56;99981.28;;;0.13;60.07
61742;BME280;47650;49.848;9.620;2023-03-03T02:44:29;99981.41;;;0.10;59.92
61742;BME280;47650;49.848;9.620;2023-03-03T02:46:56;99979.75;;;0.09;60.29
61742;BME280;47650;49.848;9.620;2023-03-03T02:49:34;99983.25;;;0.08;60.41
61742;BME280;47650;49.848;9.620;2023-03-03T02:52:01;99979.03;;;0.06;60.39
61742;BME280;47650;49.848;9.620;2023-03-03T02:54:29;99968.31;;;-0.07;60.71
61742;BME280;47650;49.848;9.620;2023-03-03T02:56:55;99988.59;;;0.05;60.36
61742;BME280;47650;49.848;9.620;2023-03-03T02:59:20;99983.63;;;0.01;60.58
61742;BME280;47650;49.848;9.620;2023-03-03T03:01:58;99984.31;;;0.04;61.10
61742;BME280;47650;49.848;9.620;2023-03-03T03:04:31;99974.44;;;-0.08;60.40
61742;BME280;47650;49.848;9.620;2023-03-03T03:07:06;99994.09;;;-0.01;61.12
61742;BME280;47650;49.848;9.620;2023-03-03T03:09:32;99995.81;;;0.00;60.94
61742;BME280;47650;49.848;9.620;2023-03-03T03:12:06;99974.94;;;-0.19;61.14
61742;BME280;47650;49.848;9.620;2023-03-03T03:14:32;99974.06;;;-0.20;61.07
61742;BME280;47650;49.848;9.620;2023-03-03T03:17:01;99993.53;;;-0.08;60.88
61742;BME280;47650;49.848;9.620;2023-03-03T03:19:33;99980.84;;;-0.15;61.00
61742;BME280;47650;49.848;9.620;2023-03-03T03:21:58;99986.19;;;-0.18;60.36
61742;BME280;47650;49.848;9.620;2023-03-03T03:24:24;99983.06;;;-0.27;60.95
61742;BME280;47650;49.848;9.620;2023-03-03T03:26:49;99982.44;;;-0.32;60.51
61742;BME280;47650;49.848;9.620;2023-03-03T03:29:19;99964.09;;;-0.49;60.38
61742;BME280;47650;49.848;9.620;2023-03-03T03:31:47;100002.16;;;-0.26;60.62
61742;BME280;47650;49.848;9.620;2023-03-03T03:34:13;100011.66;;;-0.25;61.27
61742;BME280;47650;49.848;9.620;2023-03-03T03:36:40;100005.75;;;-0.29;61.18
61742;BME280;47650;49.848;9.620;2023-03-03T03:39:06;100002.22;;;-0.28;60.58
61742;BME280;47650;49.848;9.620;2023-03-03T03:41:32;99976.97;;;-0.46;60.88
61742;BME280;47650;49.848;9.620;2023-03-03T03:43:58;99993.13;;;-0.38;61.04
61742;BME280;47650;49.848;9.620;2023-03-03T03:46:30;100001.50;;;-0.31;61.57
61742;BME280;47650;49.848;9.620;2023-03-03T03:48:55;99995.16;;;-0.45;61.74
61742;BME280;47650;49.848;9.620;2023-03-03T03:51:20;100003.78;;;-0.24;62.54
61742;BME280;47650;49.848;9.620;2023-03-03T03:53:46;100003.78;;;-0.24;61.77
61742;BME280;47650;49.848;9.620;2023-03-03T03:56:14;99955.69;;;-0.56;61.94
61742;BME280;47650;49.848;9.620;2023-03-03T03:58:54;99998.91;;;-0.31;61.44
61742;BME280;47650;49.848;9.620;2023-03-03T04:01:20;100002.50;;;-0.34;61.23
61742;BME280;47650;49.848;9.620;2023-03-03T04:03:46;99995.75;;;-0.38;61.38
61742;BME280;47650;49.848;9.620;2023-03-03T04:06:14;99997.09;;;-0.50;60.97
61742;BME280;47650;49.848;9.620;2023-03-03T04:08:46;100013.22;;;-0.42;61.36
61742;BME280;47650;49.848;9.620;2023-03-03T04:11:14;100010.63;;;-0.42;60.92
61742;BME280;47650;49.848;9.620;2023-03-03T04:13:42;99974.63;;;-0.73;60.97
61742;BME280;47650;49.848;9.620;2023-03-03T04:16:07;99940.53;;;-0.87;61.46
61742;BME280;47650;49.848;9.620;2023-03-03T04:18:33;100012.69;;;-0.48;61.70
61742;BME280;47650;49.848;9.620;2023-03-03T04:20:59;99976.56;;;-0.78;61.46
61742;BME280;47650;49.848;9.620;2023-03-03T04:23:25;99984.91;;;-0.70;61.86
61742;BME280;47650;49.848;9.620;2023-03-03T04:25:52;100002.31;;;-0.70;61.88
61742;BME280;47650;49.848;9.620;2023-03-03T04:28:19;100013.09;;;-0.59;61.44
61742;BME280;47650;49.848;9.620;2023-03-03T04:30:55;99967.06;;;-1.00;61.99
61742;BME280;47650;49.848;9.620;2023-03-03T04:33:21;100001.84;;;-0.80;62.51
61742;BME280;47650;49.848;9.620;2023-03-03T04:35:54;100006.84;;;-0.76;62.19
61742;BME280;47650;49.848;9.620;2023-03-03T04:38:19;100012.72;;;-0.70;62.51
61742;BME280;47650;49.848;9.620;2023-03-03T04:40:47;100012.13;;;-0.77;62.62
61742;BME280;47650;49.848;9.620;2023-03-03T04:43:17;100014.72;;;-0.77;62.29
61742;BME280;47650;49.848;9.620;2023-03-03T04:46:19;100011.47;;;-0.82;62.11
61742;BME280;47650;49.848;9.620;2023-03-03T04:48:44;100006.66;;;-0.91;62.28
61742;BME280;47650;49.848;9.620;2023-03-03T04:51:10;100035.44;;;-0.74;62.34
61742;BME280;47650;49.848;9.620;2023-03-03T04:53:43;100022.66;;;-0.80;62.48
61742;BME280;47650;49.848;9.620;2023-03-03T04:56:09;100031.91;;;-0.73;62.60
61742;BME280;47650;49.848;9.620;2023-03-03T04:58:52;100025.97;;;-0.77;61.97
61742;BME280;47650;49.848;9.620;2023-03-03T05:01:23;100015.31;;;-0.91;62.38
61742;BME280;47650;49.848;9.620;2023-03-03T05:03:50;100041.72;;;-0.80;62.38
61742;BME280;47650;49.848;9.620;2023-03-03T05:06:18;100000.34;;;-1.08;62.51
61742;BME280;47650;49.848;9.620;2023-03-03T05:08:48;100051.41;;;-0.83;62.78
61742;BME280;47650;49.848;9.620;2023-03-03T05:11:19;100040.34;;;-0.88;63.35
61742;BME280;47650;49.848;9.620;2023-03-03T05:13:47;100052.22;;;-0.81;62.62
61742;BME280;47650;49.848;9.620;2023-03-03T05:16:12;100035.94;;;-0.86;63.28
61742;BME280;47650;49.848;9.620;2023-03-03T05:18:37;100038.66;;;-0.89;62.98
61742;BME280;47650;49.848;9.620;2023-03-03T05:21:08;100050.47;;;-0.81;63.04
61742;BME280;47650;49.848;9.620;2023-03-03T05:23:39;99995.41;;;-1.14;62.80
61742;BME280;47650;49.848;9.620;2023-03-03T05:26:06;100030.97;;;-0.92;62.48
61742;BME280;47650;49.848;9.620;2023-03-03T05:28:35;100052.28;;;-0.83;62.71
61742;BME280;47650;49.848;9.620;2023-03-03T05:31:00;100029.41;;;-0.97;62.73
61742;BME280;47650;49.848;9.620;2023-03-03T05:33:26;100005.56;;;-1.08;63.08
61742;BME280;47650;49.848;9.620;2023-03-03T05:35:57;99997.31;;;-1.18;62.81
61742;BME280;47650;49.848;9.620;2023-03-03T05:38:29;99999.16;;;-1.21;62.71
61742;BME280;47650;49.848;9.620;2023-03-03T05:40:54;100033.03;;;-1.01;62.78
61742;BME280;47650;49.848;9.620;2023-03-03T05:43:20;100054.66;;;-0.99;62.61
61742;BME280;47650;49.848;9.620;2023-03-03T05:45:45;100046.00;;;-0.99;63.20
61742;BME280;47650;49.848;9.620;2023-03-03T05:48:13;100040.44;;;-1.12;63.45
61742;BME280;47650;49.848;9.620;2023-03-03T05:50:45;100041.53;;;-1.18;62.91
61742;BME280;47650;49.848;9.620;2023-03-03T05:53:10;100069.34;;;-0.98;63.36
61742;BME280;47650;49.848;9.620;2023-03-03T05:55:35;100053.25;;;-1.07;63.28
61742;BME280;47650;49.848;9.620;2023-03-03T05:58:00;100060.88;;;-1.03;63.18
61742;BME280;47650;49.848;9.620;2023-03-03T06:00:27;100039.00;;;-1.19;62.77
61742;BME280;47650;49.848;9.620;2023-03-03T06:02:53;100067.84;;;-1.03;63.13
61742;BME280;47650;49.848;9.620;2023-03-03T06:05:19;100073.78;;;-1.00;63.28
61742;BME280;47650;49.848;9.620;2023-03-03T06:07:44;100026.25;;;-1.27;63.23
61742;BME280;47650;49.848;9.620;2023-03-03T06:10:10;100086.53;;;-0.93;63.68
61742;BME280;47650;49.848;9.620;2023-03-03T06:12:35;100030.47;;;-1.23;63.55
61742;BME280;47650;49.848;9.620;2023-03-03T06:15:05;100057.31;;;-1.00;63.31
61742;BME280;47650;49.848;9.620;2023-03-03T06:17:31;100080.16;;;-0.85;63.46
61742;BME280;47650;49.848;9.620;2023-03-03T06:19:57;100075.00;;;-0.86;63.13
61742;BME280;47650;49.848;9.620;2023-03-03T06:22:29;100082.66;;;-0.83;63.33
61742;BME280;47650;49.848;9.620;2023-03-03T06:24:54;100073.06;;;-0.81;63.79
61742;BME280;47650;49.848;9.620;2023-03-03T06:27:20;100089.84;;;-0.68;63.77
61742;BME280;47650;49.848;9.620;2023-03-03T06:29:45;100054.28;;;-0.89;63.45
61742;BME280;47650;49.848;9.620;2023-03-03T06:32:11;100079.31;;;-0.65;63.10
61742;BME280;47650;49.848;9.620;2023-03-03T06:34:38;100070.78;;;-0.68;62.30
61742;BME280;47650;49.848;9.620;2023-03-03T06:37:10;100081.19;;;-0.46;62.54
61742;BME280;47650;49.848;9.620;2023-03-03T06:39:36;100094.53;;;-0.33;62.69
61742;BME280;47650;49.848;9.620;2023-03-03T06:42:08;100083.78;;;-0.26;62.92
61742;BME280;47650;49.848;9.620;2023-03-03T06:44:34;100066.59;;;-0.30;62.48
61742;BME280;47650;49.848;9.620;2023-03-03T06:46:59;100088.84;;;-0.02;62.79
61742;BME280;47650;49.848;9.620;2023-03-03T06:49:30;100101.22;;;0.13;62.83
61742;BME280;47650;49.848;9.620;2023-03-03T06:51:58;100105.25;;;0.21;62.71
61742;BME280;47650;49.848;9.620;2023-03-03T06:54:28;100051.72;;;-0.07;61.74
61742;BME280;47650;49.848;9.620;2023-03-03T06:56:59;100108.75;;;0.40;62.25
61742;BME280;47650;49.848;9.620;2023-03-03T06:59:28;100109.03;;;0.53;61.85
61742;BME280;47650;49.848;9.620;2023-03-03T07:02:00;100117.88;;;0.69;61.33
61742;BME280;47650;49.848;9.620;2023-03-03T07:04:29;100125.22;;;0.80;60.97
61742;BME280;47650;49.848;9.620;2023-03-03T07:07:28;100131.19;;;1.01;60.55
61742;BME280;47650;49.848;9.620;2023-03-03T07:09:55;100102.84;;;0.93;60.83
61742;BME280;47650;49.848;9.620;2023-03-03T07:12:28;100135.81;;;1.33;60.15
61742;BME280;47650;49.848;9.620;2023-03-03T07:15:24;100129.72;;;1.51;59.91
61742;BME280;47650;49.848;9.620;2023-03-03T07:18:34;100133.50;;;1.63;59.34
61742;BME280;47650;49.848;9.620;2023-03-03T07:21:15;100119.88;;;1.74;59.09
61742;BME280;47650;49.848;9.620;2023-03-03T07:23:44;100141.28;;;1.99;59.08
61742;BME280;47650;49.848;9.620;2023-03-03T07:26:20;100137.09;;;2.13;58.93
61742;BME280;47650;49.848;9.620;2023-03-03T07:28:59;100150.00;;;2.33;57.98
61742;BME280;47650;49.848;9.620;2023-03-03T07:31:33;100151.06;;;2.47;57.68
61742;BME280;47650;49.848;9.620;2023-03-03T07:34:02;100156.31;;;2.62;57.55
61742;BME280;47650;49.848;9.620;2023-03-03T07:36:35;100154.16;;;2.87;57.82
61742;BME280;47650;49.848;9.620;2023-03-03T07:39:30;100162.53;;;3.09;56.86
61742;BME280;47650;49.848;9.620;2023-03-03T07:42:37;100155.19;;;3.32;55.97
61742;BME280;47650;49.848;9.620;2023-03-03T07:45:21;100118.84;;;3.26;55.81
61742;BME280;47650;49.848;9.620;2023-03-03T07:47:47;100163.38;;;3.57;55.23
61742;BME280;47650;49.848;9.620;2023-03-03T07:50:19;100132.47;;;3.63;55.61
61742;BME280;47650;49.848;9.620;2023-03-03T07:52:56;100152.97;;;3.40;55.67
61742;BME280;47650;49.848;9.620;2023-03-03T07:55:40;100172.78;;;4.06;55.84
61742;BME280;47650;49.848;9.620;2023-03-03T07:58:38;100180.25;;;4.28;55.01
61742;BME280;47650;49.848;9.620;2023-03-03T08:03:50;100170.69;;;5.14;53.46
61742;BME280;47650;49.848;9.620;2023-03-03T08:09:30;100176.53;;;6.00;49.95
61742;BME280;47650;49.848;9.620;2023-03-03T08:14:33;100167.91;;;6.75;48.14
61742;BME280;47650;49.848;9.620;2023-03-03T08:16:59;100171.41;;;7.26;46.60
61742;BME280;47650;49.848;9.620;2023-03-03T08:19:25;100165.34;;;8.32;45.49
61742;BME280;47650;49.848;9.620;2023-03-03T08:21:58;100158.59;;;8.97;43.13
61742;BME280;47650;49.848;9.620;2023-03-03T08:24:27;100156.84;;;9.94;40.93
61742;BME280;47650;49.848;9.620;2023-03-03T08:27:03;100134.81;;;10.57;39.09
61742;BME280;47650;49.848;9.620;2023-03-03T08:29:28;100132.00;;;11.89;37.68
61742;BME280;47650;49.848;9.620;2023-03-03T08:31:53;100144.06;;;12.59;35.93
61742;BME280;47650;49.848;9.620;2023-03-03T08:34:19;100150.00;;;12.81;35.18
61742;BME280;47650;49.848;9.620;2023-03-03T08:36:45;100141.22;;;13.72;35.75
61742;BME280;47650;49.848;9.620;2023-03-03T08:39:19;100124.84;;;14.55;33.44
61742;BME280;47650;49.848;9.620;2023-03-03T08:41:44;100135.19;;;12.21;35.54
61742;BME280;47650;49.848;9.620;2023-03-03T08:44:10;100113.13;;;11.43;37.90
61742;BME280;47650;49.848;9.620;2023-03-03T08:46:36;100136.94;;;13.97;34.45
61742;BME280;47650;49.848;9.620;2023-03-03T08:49:02;100136.28;;;13.13;34.28
61742;BME280;47650;49.848;9.620;2023-03-03T08:51:29;100134.56;;;13.94;32.85
61742;BME280;47650;49.848;9.620;2023-03-03T08:53:54;100130.25;;;15.06;31.89
61742;BME280;47650;49.848;9.620;2023-03-03T08:56:20;100102.63;;;15.48;30.98
61742;BME280;47650;49.848;9.620;2023-03-03T08:58:57;99686.22;;;13.15;29.79
61742;BME280;47650;49.848;9.620;2023-03-03T09:01:23;100128.63;;;15.21;30.83
61742;BME280;47650;49.848;9.620;2023-03-03T09:03:48;100121.53;;;16.37;30.11
61742;BME280;47650;49.848;9.620;2023-03-03T09:06:14;100132.09;;;15.97;29.25
61742;BME280;47650;49.848;9.620;2023-03-03T09:08:40;100105.47;;;17.24;27.46
61742;BME280;47650;49.848;9.620;2023-03-03T09:11:11;100128.31;;;17.43;28.60
61742;BME280;47650;49.848;9.620;2023-03-03T09:13:37;100108.22;;;19.13;26.18
61742;BME280;47650;49.848;9.620;2023-03-03T09:16:16;100132.78;;;18.80;26.81
61742;BME280;47650;49.848;9.620;2023-03-03T09:18:42;100129.69;;;18.23;26.08
61742;BME280;47650;49.848;9.620;2023-03-03T09:21:30;100115.03;;;19.30;25.09
61742;BME280;47650;49.848;9.620;2023-03-03T09:23:59;100118.59;;;20.24;23.58
61742;BME280;47650;49.848;9.620;2023-03-03T09:29:38;100113.66;;;20.56;22.74
61742;BME280;47650;49.848;9.620;2023-03-03T09:34:51;100111.25;;;21.22;22.53
61742;BME280;47650;49.848;9.620;2023-03-03T09:39:55;100103.31;;;22.29;21.83
61742;BME280;47650;49.848;9.620;2023-03-03T09:42:44;100111.41;;;21.76;21.19
61742;BME280;47650;49.848;9.620;2023-03-03T09:56:37;100100.59;;;23.01;20.38
61742;BME280;47650;49.848;9.620;2023-03-03T10:07:24;100125.91;;;22.55;20.53
61742;BME280;47650;49.848;9.620;2023-03-03T10:09:56;100111.41;;;22.36;21.08
61742;BME280;47650;49.848;9.620;2023-03-03T10:17:52;100110.38;;;22.30;20.83
61742;BME280;47650;49.848;9.620;2023-03-03T10:23:51;100105.97;;;23.78;19.87
61742;BME280;47650;49.848;9.620;2023-03-03T10:26:46;100093.59;;;23.32;20.04
61742;BME280;47650;49.848;9.620;2023-03-03T10:35:17;100100.53;;;24.10;18.86
61742;BME280;47650;49.848;9.620;2023-03-03T10:38:04;100107.56;;;24.62;18.74
61742;BME280;47650;49.848;9.620;2023-03-03T10:40:41;100101.38;;;25.40;17.41
61742;BME280;47650;49.848;9.620;2023-03-03T10:43:22;100114.16;;;25.03;17.83
61742;BME280;47650;49.848;9.620;2023-03-03T10:46:29;100119.63;;;25.33;17.59
61742;BME280;47650;49.848;9.620;2023-03-03T10:49:25;100122.28;;;25.21;17.60
61742;BME280;47650;49.848;9.620;2023-03-03T10:55:11;100113.06;;;24.73;18.07
61742;BME280;47650;49.848;9.620;2023-03-03T10:58:11;100105.16;;;24.72;18.29
61742;BME280;47650;49.848;9.620;2023-03-03T11:08:58;100117.97;;;24.65;18.17
61742;BME280;47650;49.848;9.620;2023-03-03T11:11:45;100110.28;;;25.71;17.35
61742;BME280;47650;49.848;9.620;2023-03-03T11:14:28;100084.50;;;26.16;16.84
61742;BME280;47650;49.848;9.620;2023-03-03T11:17:08;100105.72;;;25.71;17.34
61742;BME280;47650;49.848;9.620;2023-03-03T11:19:48;100095.59;;;23.05;19.50
61742;BME280;47650;49.848;9.620;2023-03-03T11:22:40;100101.81;;;21.53;20.77
61742;BME280;47650;49.848;9.620;2023-03-03T11:30:38;100088.06;;;23.84;19.49
61742;BME280;47650;49.848;9.620;2023-03-03T11:33:21;100074.09;;;25.89;17.33
61742;BME280;47650;49.848;9.620;2023-03-03T11:36:08;100064.38;;;27.05;16.72
61742;BME280;47650;49.848;9.620;2023-03-03T11:38:50;100067.69;;;26.66;15.93
61742;BME280;47650;49.848;9.620;2023-03-03T11:41:41;100077.91;;;23.02;18.66
61742;BME280;47650;49.848;9.620;2023-03-03T11:44:17;100063.34;;;27.23;15.94
61742;BME280;47650;49.848;9.620;2023-03-03T11:46:55;100056.75;;;28.76;14.44
61742;BME280;47650;49.848;9.620;2023-03-03T11:49:47;100063.38;;;25.94;15.84
61742;BME280;47650;49.848;9.620;2023-03-03T11:52:39;100069.16;;;23.14;18.29
61742;BME280;47650;49.848;9.620;2023-03-03T11:55:22;100062.63;;;22.83;18.73
61742;BME280;47650;49.848;9.620;2023-03-03T11:58:19;100060.47;;;22.98;18.53
61742;BME280;47650;49.848;9.620;2023-03-03T12:00:54;100049.97;;;21.65;20.00
61742;BME280;47650;49.848;9.620;2023-03-03T12:03:39;100051.00;;;24.03;18.83
61742;BME280;47650;49.848;9.620;2023-03-03T12:06:11;100036.00;;;26.60;16.31
61742;BME280;47650;49.848;9.620;2023-03-03T12:11:48;100021.03;;;28.56;14.88
61742;BME280;47650;49.848;9.620;2023-03-03T12:14:31;100021.50;;;27.91;14.60
61742;BME280;47650;49.848;9.620;2023-03-03T12:17:05;100012.47;;;28.69;14.76
61742;BME280;47650;49.848;9.620;2023-03-03T12:22:33;99985.66;;;29.48;13.82
61742;BME280;47650;49.848;9.620;2023-03-03T12:28:08;100015.28;;;24.87;17.06
61742;BME280;47650;49.848;9.620;2023-03-03T12:31:03;100006.34;;;24.68;16.86
61742;BME280;47650;49.848;9.620;2023-03-03T12:33:56;100013.25;;;22.94;18.31
61742;BME280;47650;49.848;9.620;2023-03-03T12:48:00;99960.41;;;31.30;12.37
61742;BME280;47650;49.848;9.620;2023-03-03T12:50:41;99978.78;;;27.80;14.45
61742;BME280;47650;49.848;9.620;2023-03-03T12:55:56;99944.81;;;31.10;11.73
61742;BME280;47650;49.848;9.620;2023-03-03T13:04:10;99964.81;;;30.27;12.55
61742;BME280;47650;49.848;9.620;2023-03-03T13:06:43;99961.19;;;28.49;12.96
61742;BME280;47650;49.848;9.620;2023-03-03T13:12:43;99956.28;;;27.68;13.58
61742;BME280;47650;49.848;9.620;2023-03-03T13:15:17;99942.75;;;25.83;15.05
61742;BME280;47650;49.848;9.620;2023-03-03T13:18:38;99958.84;;;28.36;13.86
61742;BME280;47650;49.848;9.620;2023-03-03T13:20:57;99918.50;;;30.93;12.11
61742;BME280;47650;49.848;9.620;2023-03-03T13:23:46;99938.06;;;32.19;11.51
61742;BME280;47650;49.848;9.620;2023-03-03T13:26:19;99931.78;;;32.63;9.82
61742;BME280;47650;49.848;9.620;2023-03-03T13:31:21;99927.47;;;33.26;9.49
61742;BME280;47650;49.848;9.620;2023-03-03T13:33:53;99928.25;;;33.61;8.88
61742;BME280;47650;49.848;9.620;2023-03-03T13:36:28;99925.91;;;32.80;8.72
61742;BME280;47650;49.848;9.620;2023-03-03T13:39:02;99930.34;;;34.60;8.62
61742;BME280;47650;49.848;9.620;2023-03-03T13:41:54;99921.84;;;33.95;8.74
61742;BME280;47650;49.848;9.620;2023-03-03T13:44:33;99937.88;;;29.93;10.64
61742;BME280;47650;49.848;9.620;2023-03-03T13:47:21;99945.56;;;28.17;11.67
61742;BME280;47650;49.848;9.620;2023-03-03T13:50:02;99907.28;;;31.05;10.42
61742;BME280;47650;49.848;9.620;2023-03-03T13:52:58;99926.09;;;31.89;11.04
61742;BME280;47650;49.848;9.620;2023-03-03T13:55:43;99923.16;;;30.93;10.08
61742;BME280;47650;49.848;9.620;2023-03-03T13:58:27;99917.94;;;31.33;10.07
61742;BME280;47650;49.848;9.620;2023-03-03T14:01:06;99916.03;;;30.97;10.89
61742;BME280;47650;49.848;9.620;2023-03-03T14:06:28;99901.69;;;31.82;10.21
61742;BME280;47650;49.848;9.620;2023-03-03T14:11:31;99898.50;;;31.49;10.62
61742;BME280;47650;49.848;9.620;2023-03-03T14:14:23;99888.28;;;32.80;9.68
61742;BME280;47650;49.848;9.620;2023-03-03T14:20:11;99893.84;;;31.19;10.58
61742;BME280;47650;49.848;9.620;2023-03-03T14:22:51;99889.50;;;32.19;9.29
61742;BME280;47650;49.848;9.620;2023-03-03T14:28:46;99885.75;;;32.50;9.42
61742;BME280;47650;49.848;9.620;2023-03-03T14:31:37;99882.88;;;31.40;10.62
61742;BME280;47650;49.848;9.620;2023-03-03T14:36:51;99876.38;;;32.56;9.85
61742;BME280;47650;49.848;9.620;2023-03-03T14:39:38;99891.88;;;30.53;10.74
61742;BME280;47650;49.848;9.620;2023-03-03T14:42:31;99847.00;;;31.31;10.89
61742;BME280;47650;49.848;9.620;2023-03-03T14:45:32;99882.09;;;32.15;10.15
61742;BME280;47650;49.848;9.620;2023-03-03T14:47:59;99877.56;;;31.84;10.57
61742;BME280;47650;49.848;9.620;2023-03-03T14:50:37;99879.84;;;31.46;10.24
61742;BME280;47650;49.848;9.620;2023-03-03T14:53:36;99877.97;;;30.65;11.03
61742;BME280;47650;49.848;9.620;2023-03-03T14:56:25;99889.41;;;30.51;11.42
61742;BME280;47650;49.848;9.620;2023-03-03T14:58:53;99879.34;;;31.03;11.34
61742;BME280;47650;49.848;9.620;2023-03-03T15:01:36;99872.97;;;31.44;10.48
61742;BME280;47650;49.848;9.620;2023-03-03T15:06:52;99881.19;;;29.30;12.05
61742;BME280;47650;49.848;9.620;2023-03-03T15:09:47;99892.22;;;26.35;13.65
61742;BME280;47650;49.848;9.620;2023-03-03T15:12:39;99885.47;;;28.07;13.17
61742;BME280;47650;49.848;9.620;2023-03-03T15:17:39;99897.66;;;25.23;15.39
61742;BME280;47650;49.848;9.620;2023-03-03T15:20:09;99888.47;;;25.71;15.11
61742;BME280;47650;49.848;9.620;2023-03-03T15:22:48;99901.22;;;25.36;15.45
61742;BME280;47650;49.848;9.620;2023-03-03T15:25:35;99896.69;;;25.06;15.86
61742;BME280;47650;49.848;9.620;2023-03-03T15:28:21;99893.97;;;25.06;15.76
61742;BME280;47650;49.848;9.620;2023-03-03T15:31:29;99899.03;;;25.14;15.76
61742;BME280;47650;49.848;9.620;2023-03-03T15:34:23;99894.22;;;24.62;16.25
61742;BME280;47650;49.848;9.620;2023-03-03T15:40:04;99904.47;;;23.93;16.62
61742;BME280;47650;49.848;9.620;2023-03-03T15:42:48;99898.69;;;23.45;16.89
61742;BME280;47650;49.848;9.620;2023-03-03T15:45:36;99904.16;;;23.39;17.37
61742;BME280;47650;49.848;9.620;2023-03-03T15:54:08;99901.41;;;22.63;18.69
61742;BME280;47650;49.848;9.620;2023-03-03T16:07:57;99918.22;;;19.98;22.54
61742;BME280;47650;49.848;9.620;2023-03-03T16:10:38;99929.94;;;19.56;22.50
61742;BME280;47650;49.848;9.620;2023-03-03T16:13:31;99937.66;;;18.36;24.11